createdAt,value
2022-11-16T00:00:00.368Z,94.83
2022-11-16T00:02:34.263Z,95.31
2022-11-16T00:05:02.332Z,94.77
2022-11-16T00:07:30.508Z,94.55
2022-11-16T00:09:58.600Z,94.69
2022-11-16T00:12:26.519Z,95.02
2022-11-16T00:14:54.510Z,95.04
2022-11-16T00:17:22.497Z,95.65
2022-11-16T00:19:51.905Z,95.82
2022-11-16T00:22:19.907Z,95.44
2022-11-16T00:24:48.200Z,94.88
2022-11-16T00:27:16.131Z,95.10
2022-11-16T00:29:44.115Z,96.14
2022-11-16T00:32:12.407Z,95.64
2022-11-16T00:34:40.763Z,95.35
2022-11-16T00:37:10.235Z,95.60
2022-11-16T00:39:38.326Z,96.12
2022-11-16T00:42:06.477Z,97.09
2022-11-16T00:44:34.522Z,96.62
2022-11-16T00:47:02.698Z,96.11
2022-11-16T00:49:30.716Z,96.59
2022-11-16T00:51:59.063Z,96.74
2022-11-16T00:54:28.645Z,96.94
2022-11-16T00:56:57.011Z,97.19
2022-11-16T00:59:25.470Z,97.63
2022-11-16T01:01:57.466Z,97.46
2022-11-16T01:04:25.585Z,97.79
2022-11-16T01:06:54.003Z,98.15
2022-11-16T01:09:25.411Z,98.77
2022-11-16T01:12:09.895Z,97.62
2022-11-16T01:14:40.298Z,98.79
2022-11-16T01:17:08.300Z,98.47
2022-11-16T01:19:37.629Z,98.40
2022-11-16T01:22:06.095Z,98.49
2022-11-16T01:24:34.366Z,98.61
2022-11-16T01:27:03.764Z,98.95
2022-11-16T01:29:35.130Z,99.13
2022-11-16T01:32:03.342Z,98.64
2022-11-16T01:34:32.715Z,98.71
2022-11-16T01:37:06.839Z,99.23
2022-11-16T01:39:38.993Z,99.35
2022-11-16T01:42:17.944Z,99.34
2022-11-16T01:44:59.478Z,99.06
2022-11-16T01:47:27.910Z,98.44
2022-11-16T01:50:04.019Z,99.45
2022-11-16T01:52:37.847Z,99.95
2022-11-16T01:55:07.183Z,100.00
2022-11-16T01:57:49.877Z,99.77
2022-11-16T02:00:19.138Z,99.55
2022-11-16T02:03:00.758Z,100.00
2022-11-16T02:06:12.665Z,100.00
2022-11-16T02:09:13.806Z,100.00
2022-11-16T02:13:01.413Z,100.00
2022-11-16T02:15:45.249Z,100.00
2022-11-16T02:18:31.444Z,100.00
2022-11-16T02:21:18.930Z,100.00
2022-11-16T02:24:13.631Z,100.00
2022-11-16T02:27:04.618Z,100.00
2022-11-16T02:29:38.665Z,100.00
2022-11-16T02:32:13.345Z,100.00
2022-11-16T02:34:45.982Z,100.00
2022-11-16T02:37:18.086Z,100.00
2022-11-16T02:39:49.244Z,100.00
2022-11-16T02:42:21.649Z,100.00
2022-11-16T02:44:55.725Z,100.00
2022-11-16T02:47:28.427Z,100.00
2022-11-16T02:50:01.527Z,100.00
2022-11-16T02:52:29.991Z,100.00
2022-11-16T02:54:58.212Z,100.00
2022-11-16T02:57:45.392Z,100.00
2022-11-16T03:00:22.060Z,100.00
2022-11-16T03:03:00.604Z,100.00
2022-11-16T03:05:34.018Z,100.00
2022-11-16T03:08:17.705Z,100.00
2022-11-16T03:11:07.153Z,100.00
2022-11-16T03:13:37.346Z,100.00
2022-11-16T03:16:12.311Z,100.00
2022-11-16T03:18:41.685Z,100.00
2022-11-16T03:21:18.702Z,100.00
2022-11-16T03:23:47.873Z,100.00
2022-11-16T03:26:19.791Z,100.00
2022-11-16T03:28:53.426Z,100.00
2022-11-16T03:31:29.119Z,100.00
2022-11-16T03:33:59.696Z,100.00
2022-11-16T03:36:32.218Z,100.00
2022-11-16T03:39:04.246Z,100.00
2022-11-16T03:41:38.636Z,100.00
2022-11-16T03:44:08.886Z,100.00
2022-11-16T03:46:38.508Z,100.00
2022-11-16T03:49:07.291Z,100.00
2022-11-16T03:51:37.797Z,100.00
2022-11-16T03:54:06.419Z,100.00
2022-11-16T03:56:35.910Z,100.00
2022-11-16T03:59:05.662Z,100.00
2022-11-16T04:01:33.663Z,100.00
2022-11-16T04:04:03.176Z,100.00
2022-11-16T04:06:49.081Z,100.00
2022-11-16T04:09:46.249Z,100.00
2022-11-16T04:12:31.808Z,100.00
2022-11-16T04:15:17.150Z,100.00
2022-11-16T04:18:02.577Z,100.00
2022-11-16T04:20:49.563Z,100.00
2022-11-16T04:23:31.697Z,100.00
2022-11-16T04:26:01.128Z,100.00
2022-11-16T04:28:30.650Z,100.00
2022-11-16T04:31:22.864Z,100.00
2022-11-16T04:34:16.227Z,100.00
2022-11-16T04:37:07.836Z,100.00
2022-11-16T04:39:36.469Z,100.00
2022-11-16T04:42:15.367Z,100.00
2022-11-16T04:45:02.916Z,100.00
2022-11-16T04:47:37.312Z,100.00
2022-11-16T04:50:07.005Z,100.00
2022-11-16T04:52:36.701Z,100.00
2022-11-16T04:55:07.136Z,100.00
2022-11-16T04:57:35.130Z,100.00
2022-11-16T05:00:05.904Z,100.00
2022-11-16T05:02:36.107Z,100.00
2022-11-16T05:05:04.472Z,100.00
2022-11-16T05:07:32.828Z,100.00
2022-11-16T05:10:09.453Z,100.00
2022-11-16T05:12:37.506Z,100.00
2022-11-16T05:15:08.722Z,100.00
2022-11-16T05:17:36.959Z,100.00
2022-11-16T05:20:28.268Z,100.00
2022-11-16T05:23:01.587Z,100.00
2022-11-16T05:25:36.948Z,100.00
2022-11-16T05:28:08.187Z,100.00
2022-11-16T05:30:40.663Z,100.00
2022-11-16T05:33:08.782Z,100.00
2022-11-16T05:35:40.983Z,100.00
2022-11-16T05:38:09.195Z,100.00
2022-11-16T05:40:43.862Z,100.00
2022-11-16T05:43:12.027Z,100.00
2022-11-16T05:45:48.577Z,100.00
2022-11-16T05:48:17.133Z,100.00
2022-11-16T05:50:45.544Z,100.00
2022-11-16T05:53:20.663Z,100.00
2022-11-16T05:55:51.350Z,100.00
2022-11-16T05:58:20.555Z,100.00
2022-11-16T06:00:51.050Z,100.00
2022-11-16T06:03:20.607Z,100.00
2022-11-16T06:05:48.630Z,100.00
2022-11-16T06:08:18.320Z,100.00
2022-11-16T06:10:47.275Z,100.00
2022-11-16T06:13:16.611Z,100.00
2022-11-16T06:15:50.199Z,100.00
2022-11-16T06:18:19.073Z,100.00
2022-11-16T06:20:48.827Z,100.00
2022-11-16T06:23:18.515Z,100.00
2022-11-16T06:25:47.180Z,100.00
2022-11-16T06:28:16.581Z,100.00
2022-11-16T06:30:45.081Z,100.00
2022-11-16T06:33:13.233Z,100.00
2022-11-16T06:35:41.655Z,100.00
2022-11-16T06:38:11.779Z,100.00
2022-11-16T06:40:39.802Z,100.00
2022-11-16T06:43:07.922Z,100.00
2022-11-16T06:45:37.635Z,100.00
2022-11-16T06:48:06.447Z,100.00
2022-11-16T06:50:34.551Z,100.00
2022-11-16T06:53:02.599Z,100.00
2022-11-16T06:55:31.011Z,100.00
2022-11-16T06:57:59.079Z,100.00
2022-11-16T07:00:27.960Z,100.00
2022-11-16T07:02:58.722Z,100.00
2022-11-16T07:05:26.719Z,100.00
2022-11-16T07:07:56.502Z,100.00
2022-11-16T07:10:26.530Z,100.00
2022-11-16T07:12:55.578Z,100.00
2022-11-16T07:15:24.752Z,100.00
2022-11-16T07:17:52.859Z,100.00
2022-11-16T07:20:23.111Z,100.00
2022-11-16T07:22:51.929Z,100.00
2022-11-16T07:25:19.919Z,100.00
2022-11-16T07:27:48.690Z,100.00
2022-11-16T07:30:17.260Z,99.62
2022-11-16T07:33:00.739Z,99.38
2022-11-16T07:36:03.452Z,99.84
2022-11-16T07:38:33.300Z,100.00
2022-11-16T07:41:02.265Z,100.00
2022-11-16T07:43:35.132Z,99.64
2022-11-16T07:49:03.994Z,99.71
2022-11-16T07:51:55.840Z,100.00
2022-11-16T07:54:46.711Z,98.42
2022-11-16T07:57:16.308Z,99.38
2022-11-16T07:59:44.985Z,99.78
2022-11-16T08:02:13.469Z,100.00
2022-11-16T08:04:42.891Z,99.14
2022-11-16T08:07:12.400Z,98.40
2022-11-16T08:09:50.582Z,99.04
2022-11-16T08:12:18.921Z,99.36
2022-11-16T08:14:48.166Z,99.17
2022-11-16T08:17:16.374Z,99.63
2022-11-16T08:19:45.178Z,98.97
2022-11-16T08:22:17.619Z,99.05
2022-11-16T08:24:47.313Z,98.91
2022-11-16T08:27:16.989Z,98.63
2022-11-16T08:29:47.973Z,98.08
2022-11-16T08:32:16.532Z,98.70
2022-11-16T08:34:45.232Z,98.54
2022-11-16T08:37:14.460Z,98.31
2022-11-16T08:39:48.209Z,98.39
2022-11-16T08:42:16.343Z,98.47
2022-11-16T08:44:48.127Z,97.92
2022-11-16T08:47:19.505Z,97.76
2022-11-16T08:49:56.434Z,98.45
2022-11-16T08:52:26.781Z,98.49
2022-11-16T08:54:57.969Z,97.75
2022-11-16T08:57:26.457Z,97.60
2022-11-16T08:59:59.188Z,97.37
2022-11-16T09:02:27.637Z,97.81
2022-11-16T09:04:55.604Z,97.01
2022-11-16T09:07:23.781Z,96.25
2022-11-16T09:09:51.765Z,95.09
2022-11-16T09:12:21.068Z,95.33
2022-11-16T09:14:49.093Z,94.00
2022-11-16T09:17:22.787Z,95.46
2022-11-16T09:19:51.159Z,95.52
2022-11-16T09:22:19.289Z,95.58
2022-11-16T09:24:47.498Z,94.61
2022-11-16T09:27:16.476Z,95.22
2022-11-16T09:29:45.855Z,94.44
2022-11-16T09:32:13.857Z,93.87
2022-11-16T09:34:41.975Z,94.09
2022-11-16T09:37:10.675Z,94.28
2022-11-16T09:39:38.731Z,95.06
2022-11-16T09:42:19.761Z,93.55
2022-11-16T09:45:05.607Z,92.31
2022-11-16T09:47:45.779Z,92.99
2022-11-16T09:50:26.603Z,92.56
2022-11-16T09:52:58.983Z,92.37
2022-11-16T09:55:33.286Z,92.77
2022-11-16T09:58:04.286Z,93.30
2022-11-16T10:00:36.110Z,93.61
2022-11-16T10:03:08.025Z,92.50
2022-11-16T10:05:41.874Z,92.94
2022-11-16T10:08:16.203Z,91.13
2022-11-16T10:10:52.749Z,91.90
2022-11-16T10:13:35.821Z,92.48
2022-11-16T10:16:14.973Z,89.36
2022-11-16T10:18:55.100Z,90.69
2022-11-16T10:21:37.895Z,91.32
2022-11-16T10:24:34.234Z,92.03
2022-11-16T10:27:22.005Z,89.95
2022-11-16T10:29:58.437Z,88.97
2022-11-16T10:32:32.216Z,89.44
2022-11-16T10:35:05.317Z,89.04
2022-11-16T10:37:36.945Z,87.49
2022-11-16T10:40:18.665Z,89.06
2022-11-16T10:42:54.862Z,88.66
2022-11-16T10:45:26.498Z,87.77
2022-11-16T10:48:02.628Z,87.87
2022-11-16T10:50:36.221Z,86.16
2022-11-16T10:53:04.471Z,85.56
2022-11-16T10:55:32.502Z,84.97
2022-11-16T10:58:01.963Z,86.94
2022-11-16T11:00:44.134Z,85.59
2022-11-16T11:03:14.188Z,84.14
2022-11-16T11:05:54.510Z,83.99
2022-11-16T11:08:27.842Z,84.42
2022-11-16T11:11:01.783Z,79.86
2022-11-16T11:13:30.159Z,80.23
2022-11-16T11:16:17.144Z,78.80
2022-11-16T11:18:46.605Z,78.59
2022-11-16T11:21:19.777Z,79.62
2022-11-16T11:23:50.816Z,77.21
2022-11-16T11:26:36.513Z,77.08
2022-11-16T11:29:18.147Z,77.71
2022-11-16T11:31:50.239Z,76.69
2022-11-16T11:34:22.808Z,76.95
2022-11-16T11:36:55.073Z,77.04
2022-11-16T11:39:34.370Z,76.55
2022-11-16T11:42:05.851Z,74.62
2022-11-16T11:44:44.713Z,74.44
2022-11-16T11:47:57.439Z,72.24
2022-11-16T11:50:39.950Z,72.83
2022-11-16T11:53:15.424Z,70.25
2022-11-16T11:55:43.641Z,70.64
2022-11-16T11:58:17.632Z,72.43
2022-11-16T12:00:57.273Z,72.35
2022-11-16T12:03:54.979Z,74.45
2022-11-16T12:06:32.483Z,71.77
2022-11-16T12:09:30.616Z,70.94
2022-11-16T12:12:15.674Z,71.67
2022-11-16T12:15:00.785Z,71.01
2022-11-16T12:17:36.211Z,71.99
2022-11-16T12:20:22.974Z,70.00
2022-11-16T12:23:05.707Z,70.84
2022-11-16T12:25:42.684Z,70.10
2022-11-16T12:29:25.187Z,69.59
2022-11-16T12:32:12.501Z,70.27
2022-11-16T12:34:53.477Z,70.03
2022-11-16T12:37:28.985Z,69.62
2022-11-16T12:40:19.402Z,69.30
2022-11-16T12:42:55.462Z,68.08
2022-11-16T12:45:38.764Z,69.19
2022-11-16T12:48:22.083Z,69.10
2022-11-16T12:50:57.876Z,68.96
2022-11-16T12:53:55.103Z,70.13
2022-11-16T12:56:34.427Z,70.71
2022-11-16T12:59:18.785Z,69.53
2022-11-16T13:02:00.279Z,69.44
2022-11-16T13:04:34.496Z,69.53
2022-11-16T13:07:11.413Z,68.56
2022-11-16T13:09:44.526Z,68.88
2022-11-16T13:12:17.254Z,68.76
2022-11-16T13:14:48.244Z,68.38
2022-11-16T13:17:21.933Z,68.82
2022-11-16T13:20:18.846Z,67.78
2022-11-16T13:22:55.813Z,68.45
2022-11-16T13:25:30.251Z,69.07
2022-11-16T13:28:06.147Z,69.39
2022-11-16T13:30:44.287Z,68.84
2022-11-16T13:33:28.866Z,69.05
2022-11-16T13:35:56.934Z,68.41
2022-11-16T13:38:53.212Z,68.93
2022-11-16T13:41:28.792Z,70.02
2022-11-16T13:43:58.906Z,69.95
2022-11-16T13:46:55.431Z,70.72
2022-11-16T13:49:28.398Z,70.28
2022-11-16T13:52:11.319Z,69.59
2022-11-16T13:54:50.545Z,70.17
2022-11-16T13:57:25.710Z,69.23
2022-11-16T14:00:10.149Z,69.15
2022-11-16T14:02:39.669Z,67.70
2022-11-16T14:05:15.911Z,67.20
2022-11-16T14:07:47.110Z,67.93
2022-11-16T14:11:02.311Z,68.67
2022-11-16T14:13:39.411Z,68.69
2022-11-16T14:16:47.071Z,67.83
2022-11-16T14:19:56.027Z,67.18
2022-11-16T14:22:51.289Z,67.01
2022-11-16T14:25:33.510Z,66.11
2022-11-16T14:28:14.379Z,65.75
2022-11-16T14:30:53.814Z,65.71
2022-11-16T14:33:32.460Z,65.44
2022-11-16T14:36:03.480Z,65.86
2022-11-16T14:38:34.099Z,65.23
2022-11-16T14:41:05.187Z,65.76
2022-11-16T14:43:40.147Z,65.76
2022-11-16T14:46:11.024Z,65.70
2022-11-16T14:48:45.221Z,66.56
2022-11-16T14:51:18.506Z,65.91
2022-11-16T14:53:50.033Z,66.89
2022-11-16T14:56:19.876Z,67.89
2022-11-16T14:58:53.095Z,68.99
2022-11-16T15:01:23.721Z,68.13
2022-11-16T15:03:56.148Z,68.19
2022-11-16T15:06:27.269Z,68.93
2022-11-16T15:09:00.221Z,69.61
2022-11-16T15:11:44.957Z,69.69
2022-11-16T15:14:19.401Z,71.20
2022-11-16T15:16:51.587Z,70.95
2022-11-16T15:19:19.912Z,70.34
2022-11-16T15:21:54.303Z,69.80
2022-11-16T15:24:31.976Z,69.98
2022-11-16T15:27:11.598Z,70.55
2022-11-16T15:29:39.984Z,71.22
2022-11-16T15:32:14.119Z,73.08
2022-11-16T15:34:42.055Z,73.66
2022-11-16T15:37:15.187Z,73.31
2022-11-16T15:39:44.223Z,73.60
2022-11-16T15:42:16.606Z,75.35
2022-11-16T15:44:45.209Z,74.74
2022-11-16T15:47:14.871Z,74.12
2022-11-16T15:49:44.696Z,72.56
2022-11-16T15:52:14.002Z,72.51
2022-11-16T15:54:59.294Z,72.18
2022-11-16T15:57:27.175Z,72.40
2022-11-16T15:59:57.580Z,72.71
2022-11-16T16:02:28.507Z,73.49
2022-11-16T16:04:56.514Z,74.65
2022-11-16T16:07:40.019Z,73.98
2022-11-16T16:10:24.599Z,75.83
2022-11-16T16:12:54.341Z,75.08
2022-11-16T16:15:25.523Z,76.68
2022-11-16T16:17:54.912Z,76.14
2022-11-16T16:20:25.497Z,76.70
2022-11-16T16:22:55.358Z,77.56
2022-11-16T16:25:28.637Z,76.71
2022-11-16T16:27:56.701Z,77.76
2022-11-16T16:30:24.690Z,77.43
2022-11-16T16:32:52.968Z,78.34
2022-11-16T16:35:22.968Z,78.19
2022-11-16T16:37:52.407Z,78.65
2022-11-16T16:40:21.705Z,78.84
2022-11-16T16:42:50.109Z,79.03
2022-11-16T16:45:20.645Z,80.35
2022-11-16T16:47:50.348Z,81.04
2022-11-16T16:50:18.579Z,80.69
2022-11-16T16:52:46.659Z,81.05
2022-11-16T16:55:14.893Z,79.93
2022-11-16T16:57:44.215Z,79.94
2022-11-16T17:00:13.113Z,79.99
2022-11-16T17:02:41.056Z,80.64
2022-11-16T17:05:09.859Z,82.32
2022-11-16T17:07:37.964Z,81.22
2022-11-16T17:10:06.982Z,81.68
2022-11-16T17:12:35.303Z,81.59
2022-11-16T17:15:05.168Z,82.34
2022-11-16T17:17:33.220Z,82.65
2022-11-16T17:20:01.137Z,82.61
2022-11-16T17:22:29.115Z,82.63
2022-11-16T17:24:57.200Z,83.77
2022-11-16T17:27:25.190Z,83.77
2022-11-16T17:29:53.214Z,83.67
2022-11-16T17:32:22.574Z,84.30
2022-11-16T17:34:50.617Z,83.45
2022-11-16T17:37:18.614Z,83.12
2022-11-16T17:39:46.641Z,83.88
2022-11-16T17:42:14.600Z,84.11
2022-11-16T17:44:42.708Z,83.98
2022-11-16T17:47:11.950Z,83.26
2022-11-16T17:49:41.706Z,83.15
2022-11-16T17:52:09.700Z,83.69
2022-11-16T17:54:37.833Z,83.38
2022-11-16T17:57:06.160Z,83.96
2022-11-16T17:59:34.309Z,84.46
2022-11-16T18:02:02.517Z,84.46
2022-11-16T18:04:31.047Z,84.17
2022-11-16T18:07:01.292Z,84.80
2022-11-16T18:09:29.471Z,85.03
2022-11-16T18:11:58.451Z,84.28
2022-11-16T18:14:28.019Z,84.97
2022-11-16T18:16:56.111Z,83.74
2022-11-16T18:19:24.953Z,84.35
2022-11-16T18:21:54.504Z,83.18
2022-11-16T18:24:24.520Z,83.46
2022-11-16T18:26:52.815Z,83.92
2022-11-16T18:29:20.973Z,83.36
2022-11-16T18:31:48.963Z,83.40
2022-11-16T18:34:17.084Z,84.02
2022-11-16T18:36:46.368Z,84.84
2022-11-16T18:39:14.327Z,84.85
2022-11-16T18:41:53.280Z,84.06
2022-11-16T18:44:22.570Z,83.60
2022-11-16T18:46:50.585Z,83.22
2022-11-16T18:49:18.585Z,83.59
2022-11-16T18:51:46.681Z,84.33
2022-11-16T18:54:14.656Z,84.77
2022-11-16T18:56:42.561Z,84.90
2022-11-16T18:59:11.905Z,84.79
2022-11-16T19:01:40.077Z,84.66
2022-11-16T19:04:08.904Z,85.02
2022-11-16T19:06:37.091Z,84.49
2022-11-16T19:09:09.608Z,85.17
2022-11-16T19:11:37.730Z,85.13
2022-11-16T19:14:07.678Z,85.02
2022-11-16T19:16:39.655Z,85.28
2022-11-16T19:19:11.631Z,85.83
2022-11-16T19:21:39.984Z,85.84
2022-11-16T19:24:08.536Z,85.71
2022-11-16T19:26:36.642Z,85.49
2022-11-16T19:29:04.646Z,85.84
2022-11-16T19:31:33.920Z,86.54
2022-11-16T19:34:05.595Z,86.24
2022-11-16T19:36:35.971Z,86.68
2022-11-16T19:39:05.929Z,86.47
2022-11-16T19:41:34.123Z,86.30
2022-11-16T19:44:02.446Z,87.30
2022-11-16T19:46:32.443Z,86.88
2022-11-16T19:49:01.198Z,87.01
2022-11-16T19:51:32.225Z,87.06
2022-11-16T19:54:00.863Z,87.02
2022-11-16T19:56:29.655Z,87.35
2022-11-16T19:58:58.208Z,86.86
2022-11-16T20:01:29.235Z,88.20
2022-11-16T20:04:00.018Z,87.79
2022-11-16T20:06:30.697Z,87.72
2022-11-16T20:09:02.862Z,87.93
2022-11-16T20:11:33.838Z,87.41
2022-11-16T20:14:03.104Z,88.10
2022-11-16T20:16:38.116Z,87.61
2022-11-16T20:19:06.824Z,87.55
2022-11-16T20:21:38.168Z,87.12
2022-11-16T20:24:08.679Z,86.97
2022-11-16T20:26:37.937Z,86.82
2022-11-16T20:29:06.002Z,87.49
2022-11-16T20:31:35.077Z,87.95
2022-11-16T20:34:05.437Z,87.86
2022-11-16T20:36:35.088Z,87.24
2022-11-16T20:39:04.605Z,88.24
2022-11-16T20:41:34.182Z,88.76
2022-11-16T20:44:03.324Z,88.19
2022-11-16T20:46:33.091Z,88.03
2022-11-16T20:49:01.827Z,87.91
2022-11-16T20:51:30.525Z,88.02
2022-11-16T20:53:58.976Z,87.83
2022-11-16T20:56:28.383Z,88.30
2022-11-16T20:58:58.155Z,87.88
2022-11-16T21:01:31.442Z,88.56
2022-11-16T21:04:01.061Z,88.34
2022-11-16T21:06:29.419Z,87.65
2022-11-16T21:08:58.109Z,87.47
2022-11-16T21:11:29.850Z,87.94
2022-11-16T21:14:15.037Z,87.74
2022-11-16T21:16:43.422Z,88.09
2022-11-16T21:19:12.726Z,88.09
2022-11-16T21:21:41.515Z,88.12
2022-11-16T21:24:10.226Z,88.04
2022-11-16T21:26:39.513Z,88.43
2022-11-16T21:29:07.599Z,88.84
2022-11-16T21:31:37.001Z,88.57
2022-11-16T21:34:05.899Z,88.97
2022-11-16T21:36:34.281Z,88.97
2022-11-16T21:39:02.370Z,89.22
2022-11-16T21:41:30.323Z,89.07
2022-11-16T21:44:00.188Z,89.29
2022-11-16T21:46:28.587Z,89.34
2022-11-16T21:48:57.214Z,88.88
2022-11-16T21:51:27.356Z,89.21
2022-11-16T21:53:55.934Z,89.14
2022-11-16T21:56:25.642Z,88.86
2022-11-16T21:58:54.500Z,89.49
2022-11-16T22:01:24.778Z,90.02
2022-11-16T22:04:06.830Z,90.23
2022-11-16T22:06:52.186Z,89.63
2022-11-16T22:09:20.153Z,90.20
2022-11-16T22:11:48.444Z,89.98
2022-11-16T22:14:16.542Z,89.52
2022-11-16T22:16:45.932Z,90.42
2022-11-16T22:19:14.050Z,90.11
2022-11-16T22:21:42.069Z,89.89
2022-11-16T22:24:10.031Z,90.44
2022-11-16T22:26:39.907Z,89.40
2022-11-16T22:29:07.923Z,89.55
2022-11-16T22:31:36.342Z,89.50
2022-11-16T22:34:05.822Z,89.78
2022-11-16T22:36:33.786Z,89.92
2022-11-16T22:39:01.961Z,90.48
2022-11-16T22:41:30.384Z,89.68
2022-11-16T22:43:58.457Z,89.87
2022-11-16T22:46:26.434Z,89.87
2022-11-16T22:48:54.386Z,90.68
2022-11-16T22:51:25.472Z,89.72
2022-11-16T22:53:54.204Z,89.81
2022-11-16T22:56:22.314Z,90.35
2022-11-16T22:58:50.354Z,90.43
2022-11-16T23:01:18.964Z,90.07
2022-11-16T23:03:47.554Z,90.67
2022-11-16T23:06:16.141Z,90.51
2022-11-16T23:08:45.669Z,90.14
2022-11-16T23:11:33.091Z,90.27
2022-11-16T23:14:18.926Z,90.35
2022-11-16T23:16:47.404Z,91.00
2022-11-16T23:19:35.511Z,90.83
2022-11-16T23:22:21.755Z,91.23
2022-11-16T23:25:08.768Z,90.61
2022-11-16T23:27:41.893Z,91.20
2022-11-16T23:30:13.062Z,90.54
2022-11-16T23:32:42.259Z,91.29
2022-11-16T23:35:11.265Z,91.50
2022-11-16T23:37:51.851Z,91.38
2022-11-16T23:40:21.961Z,92.24
2022-11-16T23:43:07.034Z,91.63
2022-11-16T23:45:35.020Z,92.24
2022-11-16T23:48:03.058Z,91.82
2022-11-16T23:50:31.023Z,92.30
2022-11-16T23:52:59.059Z,92.41
2022-11-16T23:55:28.768Z,92.56
2022-11-16T23:57:56.638Z,91.68
